Dokai — JPEF — position and weather

sailwx.info

Track history (hours):
 
Tides and Currents Weather Stations Pressure Air Temp Water Temp Dewpoint Dewpoint Depression Visibility Wind Speed Wind Dir Waves Ship Positions

Dokai

Last reported at 2018-Feb-17 00:02 UTC. Time now 2018-Feb-25 03:55 UTC.
Position N 34°47' E 134°28'.
Warning: this ship's position is 8 days out of date.

Length 40 m; draft 4.5 m.

Type: Tug. MMSI: 431160000.

Date/timePositionNaut miles runAvg speedWind from/ knotsBaromVisibWave heightAir tempDewpointWater temp
2018-Feb-17 00:02N 34°47' E 134°28'2 4.6
2018-Feb-16 23:38N 34°45' E 134°28'1 5.0
2018-Feb-16 23:30N 34°44' E 134°28'1 0.1
2018-Feb-16 14:07N 34°44' E 134°29'0 0.0
2018-Feb-16 13:43N 34°44' E 134°29'0 0.1
2018-Feb-16 13:07N 34°44' E 134°29'0 0.0
2018-Feb-16 12:55N 34°44' E 134°29'0 0.0
2018-Feb-16 12:25N 34°44' E 134°29'0 0.0
2018-Feb-16 11:31N 34°44' E 134°29'0 0.0
2018-Feb-16 11:28N 34°44' E 134°29'0 0.0
2018-Feb-16 10:55N 34°44' E 134°29'0 0.0
2018-Feb-16 10:25N 34°44' E 134°29'0 0.0
2018-Feb-16 09:13N 34°44' E 134°29'0 0.0
2018-Feb-16 08:43N 34°44' E 134°29'0 0.0
2018-Feb-16 08:17N 34°44' E 134°29'1 1.7
2018-Feb-16 07:58N 34°44' E 134°30'7 2.8
2018-Feb-16 05:37N 34°43' E 134°38'1 4.9
2018-Feb-16 05:30N 34°42' E 134°38'3 5.5
2018-Feb-16 05:00N 34°41' E 134°41'3 5.4
2018-Feb-16 04:30N 34°40' E 134°44'3 5.4
2018-Feb-16 04:00N 34°39' E 134°47'3 5.2
2018-Feb-16 03:30N 34°38' E 134°50'2 4.8
2018-Feb-16 03:00N 34°38' E 134°53'3 6.8
2018-Feb-16 02:30N 34°38' E 134°57'4 7.4
2018-Feb-16 02:00N 34°37' E 135°02'3 6.9
2018-Feb-16 01:30N 34°36' E 135°06'3 6.8
2018-Feb-16 01:00N 34°35' E 135°10'3 6.6
2018-Feb-16 00:30N 34°35' E 135°13'3 6.3
2018-Feb-16 00:00N 34°34' E 135°17'3 6.1
2018-Feb-15 23:30N 34°33' E 135°21'3 5.7
2018-Feb-15 23:00N 34°32' E 135°24'1 2.2
2018-Feb-15 22:31N 34°31' E 135°24'0 0.3
2018-Feb-15 22:00N 34°31' E 135°24'3 6.1
2018-Feb-15 21:31N 34°34' E 135°22'611.1
2018-Feb-15 21:00N 34°39' E 135°25'3 5.1
2018-Feb-15 20:30N 34°39' E 135°28'0 0.0
2018-Feb-15 20:00N 34°39' E 135°28'0 0.0
2018-Feb-15 19:30N 34°39' E 135°28'0 0.0
2018-Feb-15 19:00N 34°39' E 135°28'0 0.0
2018-Feb-15 18:30N 34°39' E 135°28'0 0.0
2018-Feb-15 18:00N 34°39' E 135°28'0 0.0
2018-Feb-15 17:30N 34°39' E 135°28'0 0.0
2018-Feb-15 17:00N 34°39' E 135°28'0 0.0
2018-Feb-15 16:30N 34°39' E 135°28'0 0.0
2018-Feb-15 16:00N 34°39' E 135°28'0 0.0
2018-Feb-15 15:30N 34°39' E 135°28'0 0.0
2018-Feb-15 15:00N 34°39' E 135°28'0 0.0
2018-Feb-15 14:30N 34°39' E 135°28'0 0.0
2018-Feb-15 14:00N 34°39' E 135°28'0 0.0
2018-Feb-15 13:30N 34°39' E 135°28'0 0.0
2018-Feb-15 13:00N 34°39' E 135°28'0 0.0
2018-Feb-15 12:30N 34°39' E 135°28'0 0.0
2018-Feb-15 12:00N 34°39' E 135°28'0 0.0
2018-Feb-15 11:30N 34°39' E 135°28'0 0.0
2018-Feb-15 11:00N 34°39' E 135°28'0 0.0
2018-Feb-15 10:30N 34°39' E 135°28'0 0.0
2018-Feb-15 10:00N 34°39' E 135°28'0 0.0
2018-Feb-15 09:30N 34°39' E 135°28'0 0.0
2018-Feb-15 09:00N 34°39' E 135°28'0 0.0
2018-Feb-15 08:30N 34°39' E 135°28'0 0.0
2018-Feb-15 08:00N 34°39' E 135°28'0 0.0
2018-Feb-15 07:30N 34°39' E 135°28'0 0.0
2018-Feb-15 07:00N 34°39' E 135°28'0 0.0
2018-Feb-15 06:30N 34°39' E 135°28'0 0.0
2018-Feb-15 06:00N 34°39' E 135°28'0 0.0
2018-Feb-15 05:30N 34°39' E 135°28'0 0.0
2018-Feb-15 05:00N 34°39' E 135°28'0 0.0
2018-Feb-15 04:30N 34°39' E 135°28'0 0.0
2018-Feb-15 04:00N 34°39' E 135°28'0 0.0
2018-Feb-15 03:30N 34°39' E 135°28'0 0.0
2018-Feb-15 03:00N 34°39' E 135°28'0 0.0
2018-Feb-15 02:30N 34°39' E 135°28'0 0.0
2018-Feb-15 02:00N 34°39' E 135°28'0 0.0
2018-Feb-15 01:30N 34°39' E 135°28'0 0.0
2018-Feb-15 01:00N 34°39' E 135°28'0 0.0
2018-Feb-15 00:30N 34°39' E 135°28'0 0.0
2018-Feb-15 00:00N 34°39' E 135°28'0 0.0
2018-Feb-14 23:30N 34°39' E 135°28'  
Track history (hours):
 
Tides and Currents Weather Stations Pressure Air Temp Water Temp Dewpoint Dewpoint Depression Visibility Wind Speed Wind Dir Waves Ship Positions

Dokai

Last reported at 2018-Feb-17 00:02 UTC. Time now 2018-Feb-25 03:55 UTC.
Position N 34°47' E 134°28'.
Warning: this ship's position is 8 days out of date.

Length 40 m; draft 4.5 m.

Type: Tug. MMSI: 431160000.

Date/timePositionNaut miles runAvg speedWind from/ knotsBaromVisibWave heightAir tempDewpointWater temp
2018-Feb-17 00:02N 34°47' E 134°28'2 4.6
2018-Feb-16 23:38N 34°45' E 134°28'1 5.0
2018-Feb-16 23:30N 34°44' E 134°28'1 0.1
2018-Feb-16 14:07N 34°44' E 134°29'0 0.0
2018-Feb-16 13:43N 34°44' E 134°29'0 0.1
2018-Feb-16 13:07N 34°44' E 134°29'0 0.0
2018-Feb-16 12:55N 34°44' E 134°29'0 0.0
2018-Feb-16 12:25N 34°44' E 134°29'0 0.0
2018-Feb-16 11:31N 34°44' E 134°29'0 0.0
2018-Feb-16 11:28N 34°44' E 134°29'0 0.0
2018-Feb-16 10:55N 34°44' E 134°29'0 0.0
2018-Feb-16 10:25N 34°44' E 134°29'0 0.0
2018-Feb-16 09:13N 34°44' E 134°29'0 0.0
2018-Feb-16 08:43N 34°44' E 134°29'0 0.0
2018-Feb-16 08:17N 34°44' E 134°29'1 1.7
2018-Feb-16 07:58N 34°44' E 134°30'7 2.8
2018-Feb-16 05:37N 34°43' E 134°38'1 4.9
2018-Feb-16 05:30N 34°42' E 134°38'3 5.5
2018-Feb-16 05:00N 34°41' E 134°41'3 5.4
2018-Feb-16 04:30N 34°40' E 134°44'3 5.4
2018-Feb-16 04:00N 34°39' E 134°47'3 5.2
2018-Feb-16 03:30N 34°38' E 134°50'2 4.8
2018-Feb-16 03:00N 34°38' E 134°53'3 6.8
2018-Feb-16 02:30N 34°38' E 134°57'4 7.4
2018-Feb-16 02:00N 34°37' E 135°02'3 6.9
2018-Feb-16 01:30N 34°36' E 135°06'3 6.8
2018-Feb-16 01:00N 34°35' E 135°10'3 6.6
2018-Feb-16 00:30N 34°35' E 135°13'3 6.3
2018-Feb-16 00:00N 34°34' E 135°17'3 6.1
2018-Feb-15 23:30N 34°33' E 135°21'3 5.7
2018-Feb-15 23:00N 34°32' E 135°24'1 2.2
2018-Feb-15 22:31N 34°31' E 135°24'0 0.3
2018-Feb-15 22:00N 34°31' E 135°24'3 6.1
2018-Feb-15 21:31N 34°34' E 135°22'611.1
2018-Feb-15 21:00N 34°39' E 135°25'3 5.1
2018-Feb-15 20:30N 34°39' E 135°28'0 0.0
2018-Feb-15 20:00N 34°39' E 135°28'0 0.0
2018-Feb-15 19:30N 34°39' E 135°28'0 0.0
2018-Feb-15 19:00N 34°39' E 135°28'0 0.0
2018-Feb-15 18:30N 34°39' E 135°28'0 0.0
2018-Feb-15 18:00N 34°39' E 135°28'0 0.0
2018-Feb-15 17:30N 34°39' E 135°28'0 0.0
2018-Feb-15 17:00N 34°39' E 135°28'0 0.0
2018-Feb-15 16:30N 34°39' E 135°28'0 0.0
2018-Feb-15 16:00N 34°39' E 135°28'0 0.0
2018-Feb-15 15:30N 34°39' E 135°28'0 0.0
2018-Feb-15 15:00N 34°39' E 135°28'0 0.0
2018-Feb-15 14:30N 34°39' E 135°28'0 0.0
2018-Feb-15 14:00N 34°39' E 135°28'0 0.0
2018-Feb-15 13:30N 34°39' E 135°28'0 0.0
2018-Feb-15 13:00N 34°39' E 135°28'0 0.0
2018-Feb-15 12:30N 34°39' E 135°28'0 0.0
2018-Feb-15 12:00N 34°39' E 135°28'0 0.0
2018-Feb-15 11:30N 34°39' E 135°28'0 0.0
2018-Feb-15 11:00N 34°39' E 135°28'0 0.0
2018-Feb-15 10:30N 34°39' E 135°28'0 0.0
2018-Feb-15 10:00N 34°39' E 135°28'0 0.0
2018-Feb-15 09:30N 34°39' E 135°28'0 0.0
2018-Feb-15 09:00N 34°39' E 135°28'0 0.0
2018-Feb-15 08:30N 34°39' E 135°28'0 0.0
2018-Feb-15 08:00N 34°39' E 135°28'0 0.0
2018-Feb-15 07:30N 34°39' E 135°28'0 0.0
2018-Feb-15 07:00N 34°39' E 135°28'0 0.0
2018-Feb-15 06:30N 34°39' E 135°28'0 0.0
2018-Feb-15 06:00N 34°39' E 135°28'0 0.0
2018-Feb-15 05:30N 34°39' E 135°28'0 0.0
2018-Feb-15 05:00N 34°39' E 135°28'0 0.0
2018-Feb-15 04:30N 34°39' E 135°28'0 0.0
2018-Feb-15 04:00N 34°39' E 135°28'0 0.0
2018-Feb-15 03:30N 34°39' E 135°28'0 0.0
2018-Feb-15 03:00N 34°39' E 135°28'0 0.0
2018-Feb-15 02:30N 34°39' E 135°28'0 0.0
2018-Feb-15 02:00N 34°39' E 135°28'0 0.0
2018-Feb-15 01:30N 34°39' E 135°28'0 0.0
2018-Feb-15 01:00N 34°39' E 135°28'0 0.0
2018-Feb-15 00:30N 34°39' E 135°28'0 0.0
2018-Feb-15 00:00N 34°39' E 135°28'0 0.0
2018-Feb-14 23:30N 34°39' E 135°28'  

Dump ship's entire track history